createdAt,value
2022-08-05T00:02:21.641Z,24.92
2022-08-05T00:04:48.140Z,24.91
2022-08-05T00:08:00.495Z,24.90
2022-08-05T00:10:09.233Z,24.90
2022-08-05T00:12:35.630Z,24.90
2022-08-05T00:15:54.872Z,24.87
2022-08-05T00:18:08.331Z,24.86
2022-08-05T00:20:34.709Z,24.85
2022-08-05T00:23:13.009Z,24.86
2022-08-05T00:25:46.057Z,24.87
2022-08-05T00:28:12.857Z,24.86
2022-08-05T00:30:39.221Z,24.87
2022-08-05T00:33:07.667Z,24.87
2022-08-05T00:36:16.664Z,24.91
2022-08-05T00:38:40.649Z,24.93
2022-08-05T00:41:11.727Z,24.98
2022-08-05T00:43:47.068Z,24.94
2022-08-05T00:46:15.932Z,24.94
2022-08-05T00:48:50.271Z,24.92
2022-08-05T00:51:51.965Z,24.92
2022-08-05T00:54:04.360Z,24.90
2022-08-05T00:56:30.761Z,24.91
2022-08-05T00:58:57.143Z,24.92
2022-08-05T01:01:48.257Z,24.91
2022-08-05T01:04:14.324Z,24.90
2022-08-05T01:06:46.581Z,24.90
2022-08-05T01:09:15.293Z,24.89
2022-08-05T01:11:43.804Z,24.92
2022-08-05T01:14:28.420Z,24.92
2022-08-05T01:17:22.602Z,24.93
2022-08-05T01:20:01.317Z,24.97
2022-08-05T01:22:37.714Z,24.93
2022-08-05T01:25:11.818Z,24.91
2022-08-05T01:27:58.776Z,24.91
2022-08-05T01:30:34.156Z,24.91
2022-08-05T01:33:01.363Z,24.92
2022-08-05T01:35:51.131Z,24.93
2022-08-05T01:38:27.357Z,24.95
2022-08-05T01:40:56.989Z,24.91
2022-08-05T01:43:24.120Z,24.88
2022-08-05T01:45:56.227Z,24.86
2022-08-05T01:48:23.255Z,24.86
2022-08-05T01:50:51.037Z,24.87
2022-08-05T01:53:17.773Z,24.87
2022-08-05T01:56:04.544Z,24.85
2022-08-05T01:58:44.847Z,24.86
2022-08-05T02:01:21.485Z,24.86
2022-08-05T02:03:51.617Z,24.84
2022-08-05T02:06:37.236Z,24.85
2022-08-05T02:09:04.622Z,24.86
2022-08-05T02:11:58.401Z,24.85
2022-08-05T02:14:27.379Z,24.85
2022-08-05T02:16:54.518Z,24.84
2022-08-05T02:19:20.998Z,24.83
2022-08-05T02:22:07.281Z,24.81
2022-08-05T02:24:36.846Z,24.81
2022-08-05T02:27:09.831Z,24.80
2022-08-05T02:29:59.966Z,24.80
2022-08-05T02:32:29.186Z,24.78
2022-08-05T02:34:55.709Z,24.77
2022-08-05T02:37:22.241Z,24.76
2022-08-05T02:39:51.539Z,24.76
2022-08-05T02:42:27.696Z,24.75
2022-08-05T02:44:58.348Z,24.74
2022-08-05T02:47:25.106Z,24.75
2022-08-05T02:50:11.831Z,24.73
2022-08-05T02:52:38.250Z,24.72
2022-08-05T02:55:10.836Z,24.72
2022-08-05T02:58:11.718Z,24.67
2022-08-05T03:00:25.418Z,24.67
2022-08-05T03:02:53.274Z,24.65
2022-08-05T03:05:21.853Z,24.66
2022-08-05T03:08:08.622Z,24.72
2022-08-05T03:10:35.669Z,24.71
2022-08-05T03:15:27.301Z,24.70
2022-08-05T03:17:55.946Z,24.69
2022-08-05T03:20:24.517Z,24.68
2022-08-05T03:22:51.075Z,24.65
2022-08-05T03:26:04.011Z,24.66
2022-08-05T03:28:04.609Z,24.69
2022-08-05T03:30:34.237Z,24.70
2022-08-05T03:33:04.253Z,24.73
2022-08-05T03:35:33.970Z,24.70
2022-08-05T03:38:06.999Z,24.71
2022-08-05T03:40:34.093Z,24.69
2022-08-05T03:43:58.707Z,24.72
2022-08-05T03:45:57.151Z,24.72
2022-08-05T03:48:25.682Z,24.72
2022-08-05T03:50:53.895Z,24.67
2022-08-05T03:55:53.094Z,24.70
2022-08-05T03:56:33.091Z,24.72
2022-08-05T03:59:01.799Z,24.69
2022-08-05T04:01:32.242Z,24.71
2022-08-05T04:04:09.418Z,24.71
2022-08-05T04:06:36.799Z,24.65
2022-08-05T04:09:03.257Z,24.67
2022-08-05T04:11:50.530Z,24.66
2022-08-05T04:14:18.267Z,24.69
2022-08-05T04:16:44.719Z,24.39
2022-08-05T04:19:11.730Z,24.13
2022-08-05T04:22:09.351Z,24.10
2022-08-05T04:24:25.625Z,24.00
2022-08-05T04:26:54.143Z,24.01
2022-08-05T04:29:20.768Z,24.19
2022-08-05T04:31:48.257Z,24.21
2022-08-05T04:34:31.830Z,24.37
2022-08-05T04:37:00.777Z,24.06
2022-08-05T04:39:27.531Z,24.12
2022-08-05T04:41:54.221Z,24.32
2022-08-05T04:44:29.270Z,24.34
2022-08-05T04:46:57.186Z,24.26
2022-08-05T04:50:01.936Z,24.24
2022-08-05T04:52:11.258Z,24.13
2022-08-05T04:54:38.054Z,24.18
2022-08-05T04:57:04.422Z,24.34
2022-08-05T04:59:39.118Z,24.43
2022-08-05T05:02:36.818Z,24.41
2022-08-05T05:04:53.334Z,24.41
2022-08-05T05:07:29.529Z,24.27
2022-08-05T05:09:58.890Z,24.10
2022-08-05T05:12:29.110Z,23.93
2022-08-05T05:14:55.491Z,24.00
2022-08-05T05:17:24.663Z,24.29
2022-08-05T05:20:08.545Z,24.20
2022-08-05T05:22:35.016Z,24.45
2022-08-05T05:25:16.749Z,24.50
2022-08-05T05:27:48.805Z,24.42
2022-08-05T05:30:29.263Z,24.52
2022-08-05T05:33:01.014Z,24.59
2022-08-05T05:35:34.335Z,24.58
2022-08-05T05:38:05.657Z,24.55
2022-08-05T05:40:35.470Z,24.61
2022-08-05T05:43:02.803Z,24.66
2022-08-05T05:45:29.171Z,24.51
2022-08-05T05:48:06.000Z,24.45
2022-08-05T05:50:34.324Z,24.31
2022-08-05T05:53:20.838Z,24.46
2022-08-05T05:55:52.045Z,24.55
2022-08-05T05:58:31.792Z,24.21
2022-08-05T06:01:04.948Z,24.21
2022-08-05T06:04:01.038Z,24.48
2022-08-05T06:06:28.079Z,24.75
2022-08-05T06:08:57.674Z,24.39
2022-08-05T06:11:24.050Z,24.47
2022-08-05T06:13:55.333Z,24.79
2022-08-05T06:16:30.287Z,24.56
2022-08-05T06:19:00.098Z,24.63
2022-08-05T06:21:36.116Z,24.61
2022-08-05T06:24:03.710Z,24.53
2022-08-05T06:26:33.794Z,24.61
2022-08-05T06:29:03.276Z,24.49
2022-08-05T06:31:32.773Z,24.68
2022-08-05T06:34:07.716Z,24.77
2022-08-05T06:36:37.428Z,24.60
2022-08-05T06:39:21.793Z,24.30
2022-08-05T06:41:49.359Z,24.38
2022-08-05T06:44:15.830Z,24.45
2022-08-05T06:46:44.162Z,24.68
2022-08-05T06:49:10.531Z,24.99
2022-08-05T06:51:40.688Z,24.70
2022-08-05T06:54:07.314Z,24.73
2022-08-05T06:56:35.244Z,24.75
2022-08-05T06:59:02.327Z,24.66
2022-08-05T07:01:32.746Z,24.90
2022-08-05T07:03:59.741Z,24.60
2022-08-05T07:06:27.734Z,24.29
2022-08-05T07:08:55.181Z,24.51
2022-08-05T07:11:22.251Z,24.73
2022-08-05T07:14:07.929Z,24.83
2022-08-05T07:18:01.835Z,24.86
2022-08-05T07:22:29.189Z,24.94
2022-08-05T07:24:57.311Z,24.94
2022-08-05T07:27:27.390Z,24.95
2022-08-05T07:30:27.478Z,24.93
2022-08-05T07:32:53.452Z,24.96
2022-08-05T07:36:03.256Z,24.96
2022-08-05T07:38:06.277Z,24.98
2022-08-05T07:40:38.896Z,24.98
2022-08-05T07:43:20.083Z,24.97
2022-08-05T07:45:58.063Z,25.00
2022-08-05T07:48:36.589Z,24.99
2022-08-05T07:51:23.873Z,24.98
2022-08-05T07:53:57.415Z,24.98
2022-08-05T07:57:00.355Z,24.99
2022-08-05T07:59:10.711Z,25.00
2022-08-05T08:01:41.550Z,25.01
2022-08-05T08:04:23.625Z,25.01
2022-08-05T08:07:05.458Z,25.01
2022-08-05T08:09:33.648Z,25.02
2022-08-05T08:12:05.177Z,25.01
2022-08-05T08:14:37.753Z,24.97
2022-08-05T08:17:10.653Z,23.90
2022-08-05T08:20:21.241Z,23.31
2022-08-05T08:22:28.679Z,23.67
2022-08-05T08:24:55.054Z,23.19
2022-08-05T08:27:35.738Z,23.50
2022-08-05T08:30:29.475Z,23.66
2022-08-05T08:33:02.738Z,23.68
2022-08-05T08:35:35.081Z,23.55
2022-08-05T08:38:07.494Z,23.88
2022-08-05T08:40:34.582Z,23.99
2022-08-05T08:45:16.364Z,23.76
2022-08-05T08:45:49.515Z,23.92
2022-08-05T08:48:41.419Z,23.85
2022-08-05T08:51:07.746Z,23.76
2022-08-05T08:53:49.937Z,23.58
2022-08-05T08:56:17.191Z,23.48
2022-08-05T08:58:47.971Z,23.51
2022-08-05T09:01:16.442Z,23.54
2022-08-05T09:03:45.240Z,23.65
2022-08-05T09:06:15.765Z,23.52
2022-08-05T09:08:44.934Z,23.50
2022-08-05T09:11:13.826Z,23.68
2022-08-05T09:14:09.311Z,23.52
2022-08-05T09:16:27.329Z,23.67
2022-08-05T09:18:55.485Z,23.60
2022-08-05T09:22:22.258Z,23.64
2022-08-05T09:24:10.170Z,23.56
2022-08-05T09:26:36.843Z,23.56
2022-08-05T09:29:04.767Z,23.47
2022-08-05T09:32:40.965Z,23.75
2022-08-05T09:34:17.613Z,23.71
2022-08-05T09:36:45.728Z,23.72
2022-08-05T09:39:22.174Z,23.80
2022-08-05T09:41:58.672Z,23.74
2022-08-05T09:44:35.415Z,23.81
2022-08-05T09:47:06.781Z,23.95
2022-08-05T09:50:01.752Z,24.01
2022-08-05T09:52:35.034Z,23.42
2022-08-05T09:55:57.213Z,22.93
2022-08-05T09:57:59.792Z,23.21
2022-08-05T10:00:26.792Z,23.54
2022-08-05T10:02:58.589Z,23.24
2022-08-05T10:05:26.664Z,23.23
2022-08-05T10:08:11.187Z,23.24
2022-08-05T10:10:48.323Z,23.71
2022-08-05T10:13:45.779Z,23.54
2022-08-05T10:16:34.176Z,23.69
2022-08-05T10:19:09.513Z,23.91
2022-08-05T10:21:40.146Z,23.91
2022-08-05T10:24:10.720Z,23.77
2022-08-05T10:26:37.573Z,23.92
2022-08-05T10:29:19.185Z,24.18
2022-08-05T10:33:01.487Z,24.14
2022-08-05T10:34:36.963Z,24.41
2022-08-05T10:37:07.344Z,24.44
2022-08-05T10:40:03.928Z,24.16
2022-08-05T10:42:33.789Z,23.85
2022-08-05T10:45:00.891Z,23.73
2022-08-05T10:47:31.309Z,24.06
2022-08-05T10:50:20.754Z,24.06
2022-08-05T10:52:59.863Z,24.23
2022-08-05T10:55:26.222Z,24.32
2022-08-05T10:58:12.011Z,24.52
2022-08-05T11:00:45.695Z,24.71
2022-08-05T11:03:23.410Z,24.78
2022-08-05T11:06:03.816Z,24.87
2022-08-05T11:08:39.207Z,25.12
2022-08-05T11:11:24.660Z,24.98
2022-08-05T11:13:59.646Z,24.87
2022-08-05T11:16:34.057Z,25.24
2022-08-05T11:20:17.325Z,25.14
2022-08-05T11:22:30.140Z,25.09
2022-08-05T11:26:02.920Z,25.18
2022-08-05T11:28:11.479Z,25.24
2022-08-05T11:31:01.362Z,25.35
2022-08-05T11:33:46.026Z,25.16
2022-08-05T11:36:14.839Z,25.21
2022-08-05T11:38:46.032Z,25.16
2022-08-05T11:41:54.420Z,25.37
2022-08-05T11:44:21.511Z,25.36
2022-08-05T11:47:11.810Z,25.36
2022-08-05T11:49:42.779Z,25.41
2022-08-05T11:52:11.372Z,25.37
2022-08-05T11:54:40.361Z,25.33
2022-08-05T11:57:39.428Z,25.40
2022-08-05T11:59:54.750Z,25.39
2022-08-05T12:02:30.402Z,25.55
2022-08-05T12:04:59.988Z,25.52
2022-08-05T12:08:09.137Z,25.40
2022-08-05T12:10:13.003Z,25.49
2022-08-05T12:12:39.587Z,25.42
2022-08-05T12:15:33.283Z,25.69
2022-08-05T12:18:10.659Z,26.03
2022-08-05T12:20:38.614Z,25.99
2022-08-05T12:23:09.383Z,25.87
2022-08-05T12:25:56.750Z,25.83
2022-08-05T12:28:31.039Z,25.98
2022-08-05T12:30:57.816Z,26.16
2022-08-05T12:33:36.989Z,26.18
2022-08-05T12:36:07.967Z,26.36
2022-08-05T12:38:36.336Z,26.26
2022-08-05T12:41:03.078Z,26.11
2022-08-05T12:43:32.283Z,26.14
2022-08-05T12:45:58.788Z,26.16
2022-08-05T12:48:32.222Z,26.10
2022-08-05T12:52:10.192Z,26.04
2022-08-05T12:53:59.339Z,25.95
2022-08-05T12:56:34.931Z,25.99
2022-08-05T12:59:14.104Z,26.00
2022-08-05T13:02:07.118Z,25.94
2022-08-05T13:04:34.939Z,25.99
2022-08-05T13:07:16.136Z,26.03
2022-08-05T13:09:50.850Z,26.25
2022-08-05T13:12:23.586Z,26.50
2022-08-05T13:15:06.689Z,26.60
2022-08-05T13:17:41.345Z,26.94
2022-08-05T13:20:24.656Z,27.12
2022-08-05T13:22:52.672Z,27.14
2022-08-05T13:25:21.940Z,27.12
2022-08-05T13:27:50.288Z,27.60
2022-08-05T13:30:34.286Z,27.58
2022-08-05T13:33:03.239Z,27.44
2022-08-05T13:35:42.479Z,27.12
2022-08-05T13:38:28.369Z,26.95
2022-08-05T13:41:00.579Z,26.92
2022-08-05T13:43:44.094Z,26.89
2022-08-05T13:46:13.453Z,26.81
2022-08-05T13:48:58.234Z,26.77
2022-08-05T13:51:27.933Z,26.72
2022-08-05T13:53:58.042Z,26.81
2022-08-05T13:56:25.459Z,26.87
2022-08-05T13:58:53.465Z,26.77
2022-08-05T14:01:25.854Z,26.86
2022-08-05T14:04:21.673Z,26.92
2022-08-05T14:06:58.754Z,26.73
2022-08-05T14:09:46.079Z,26.77
2022-08-05T14:12:18.138Z,26.71
2022-08-05T14:14:58.708Z,26.85
2022-08-05T14:17:26.495Z,26.92
2022-08-05T14:19:56.895Z,27.45
2022-08-05T14:22:30.373Z,27.49
2022-08-05T14:25:00.746Z,27.46
2022-08-05T14:27:28.378Z,27.16
2022-08-05T14:29:54.847Z,27.23
2022-08-05T14:32:26.889Z,27.40
2022-08-05T14:34:54.639Z,27.28
2022-08-05T14:37:23.243Z,27.24
2022-08-05T14:40:09.833Z,27.05
2022-08-05T14:42:41.234Z,27.03
2022-08-05T14:45:08.844Z,27.16
2022-08-05T14:48:04.007Z,26.85
2022-08-05T14:50:21.739Z,26.90
2022-08-05T14:52:56.885Z,27.12
2022-08-05T14:55:25.293Z,27.15
2022-08-05T14:57:54.015Z,27.07
2022-08-05T15:00:22.407Z,27.01
2022-08-05T15:02:54.727Z,26.94
2022-08-05T15:05:21.176Z,27.01
2022-08-05T15:08:05.698Z,26.92
2022-08-05T15:10:33.870Z,26.72
2022-08-05T15:13:03.722Z,26.70
2022-08-05T15:15:55.661Z,26.70
2022-08-05T15:18:17.449Z,26.78
2022-08-05T15:20:43.870Z,26.57
2022-08-05T15:23:12.913Z,26.56
2022-08-05T15:25:52.839Z,26.49
2022-08-05T15:28:27.602Z,26.53
2022-08-05T15:30:54.247Z,26.52
2022-08-05T15:34:05.213Z,26.48
2022-08-05T15:36:09.026Z,26.44
2022-08-05T15:38:44.539Z,26.54
2022-08-05T15:41:23.005Z,26.20
2022-08-05T15:43:50.993Z,26.31
2022-08-05T15:46:18.950Z,26.43
2022-08-05T15:48:54.351Z,26.44
2022-08-05T15:52:04.199Z,26.40
2022-08-05T15:54:15.278Z,26.34
2022-08-05T15:56:42.193Z,26.31
2022-08-05T15:59:09.818Z,26.29
2022-08-05T16:01:52.246Z,26.32
2022-08-05T16:04:19.735Z,26.36
2022-08-05T16:06:46.083Z,26.38
2022-08-05T16:09:12.445Z,26.59
2022-08-05T16:11:42.554Z,26.49
2022-08-05T16:14:09.568Z,26.35
2022-08-05T16:16:36.202Z,26.12
2022-08-05T16:19:03.333Z,25.97
2022-08-05T16:21:58.712Z,25.04
2022-08-05T16:24:41.050Z,24.78
2022-08-05T16:27:03.525Z,24.16
2022-08-05T16:29:36.980Z,23.94
2022-08-05T16:32:04.126Z,24.09
2022-08-05T16:34:31.042Z,24.39
2022-08-05T16:36:57.402Z,24.52
2022-08-05T16:40:06.266Z,24.53
2022-08-05T16:42:13.652Z,25.14
2022-08-05T16:44:42.284Z,24.86
2022-08-05T16:47:29.106Z,24.72
2022-08-05T16:49:57.133Z,24.82
2022-08-05T16:52:23.822Z,25.05
2022-08-05T16:54:59.044Z,24.78
2022-08-05T16:57:50.447Z,24.47
2022-08-05T17:00:12.451Z,24.45
2022-08-05T17:02:40.576Z,23.65
2022-08-05T17:05:07.214Z,24.19
2022-08-05T17:07:43.764Z,24.31
2022-08-05T17:10:19.924Z,24.09
2022-08-05T17:12:51.034Z,23.80
2022-08-05T17:15:19.642Z,23.99
2022-08-05T17:17:48.889Z,23.96
2022-08-05T17:20:21.263Z,24.50
2022-08-05T17:22:47.620Z,24.80
2022-08-05T17:25:33.810Z,24.49
2022-08-05T17:28:06.691Z,24.55
2022-08-05T17:30:42.639Z,25.15
2022-08-05T17:33:18.607Z,25.06
2022-08-05T17:36:08.722Z,24.92
2022-08-05T17:38:32.687Z,24.53
2022-08-05T17:40:59.447Z,24.79
2022-08-05T17:43:46.480Z,24.88
2022-08-05T17:46:12.557Z,24.85
2022-08-05T17:48:39.990Z,25.03
2022-08-05T17:51:09.669Z,24.88
2022-08-05T17:53:36.083Z,24.80
2022-08-05T17:56:04.496Z,24.29
2022-08-05T17:58:32.286Z,24.10
2022-08-05T18:00:59.198Z,24.23
2022-08-05T18:03:58.528Z,24.19
2022-08-05T18:06:15.165Z,24.40
2022-08-05T18:08:44.528Z,23.79
2022-08-05T18:11:11.818Z,22.93
2022-08-05T18:13:51.271Z,23.19
2022-08-05T18:16:20.235Z,23.24
2022-08-05T18:18:47.817Z,23.16
2022-08-05T18:21:19.575Z,23.11
2022-08-05T18:23:47.640Z,22.86
2022-08-05T18:26:14.593Z,22.99
2022-08-05T18:28:44.541Z,22.64
2022-08-05T18:31:12.973Z,22.73
2022-08-05T18:33:47.221Z,22.65
2022-08-05T18:36:16.177Z,22.63
2022-08-05T18:38:42.555Z,23.01
2022-08-05T18:41:56.093Z,22.85
2022-08-05T18:43:55.350Z,22.93
2022-08-05T18:46:22.651Z,22.10
2022-08-05T18:48:53.681Z,22.24
2022-08-05T18:52:05.361Z,22.13
2022-08-05T18:54:25.749Z,22.13
2022-08-05T18:56:54.911Z,22.73
2022-08-05T18:59:42.840Z,22.40
2022-08-05T19:02:11.180Z,22.68
2022-08-05T19:05:02.210Z,22.50
2022-08-05T19:07:45.092Z,22.66
2022-08-05T19:10:12.133Z,22.31
2022-08-05T19:12:38.807Z,21.83
2022-08-05T19:15:05.369Z,22.45
2022-08-05T19:17:59.172Z,22.55
2022-08-05T19:20:25.370Z,23.06
2022-08-05T19:22:51.846Z,23.48
2022-08-05T19:25:29.585Z,24.00
2022-08-05T19:27:57.106Z,24.29
2022-08-05T19:30:23.727Z,24.41
2022-08-05T19:32:50.274Z,24.27
2022-08-05T19:35:16.635Z,24.39
2022-08-05T19:38:04.712Z,24.58
2022-08-05T19:40:29.367Z,24.57
2022-08-05T19:43:04.902Z,24.61
2022-08-05T19:45:33.308Z,24.65
2022-08-05T19:48:03.593Z,24.68
2022-08-05T19:50:31.779Z,24.76
2022-08-05T19:52:58.417Z,24.69
2022-08-05T19:56:15.291Z,24.76
2022-08-05T19:58:29.195Z,24.76
2022-08-05T20:00:56.405Z,24.60
2022-08-05T20:03:24.301Z,24.75
2022-08-05T20:05:56.389Z,24.94
2022-08-05T20:08:24.447Z,24.73
2022-08-05T20:10:51.206Z,24.79
2022-08-05T20:13:17.773Z,24.87
2022-08-05T20:15:52.204Z,24.86
2022-08-05T20:18:33.228Z,24.66
2022-08-05T20:21:01.569Z,24.94
2022-08-05T20:23:40.526Z,24.83
2022-08-05T20:26:18.880Z,24.88
2022-08-05T20:28:46.014Z,24.82
2022-08-05T20:31:13.291Z,24.91
2022-08-05T20:33:42.363Z,24.91
2022-08-05T20:36:10.099Z,24.87
2022-08-05T20:38:37.567Z,24.79
2022-08-05T20:41:08.231Z,24.87
2022-08-05T20:43:58.689Z,24.92
2022-08-05T20:46:24.958Z,25.02
2022-08-05T20:48:51.903Z,24.94
2022-08-05T20:51:18.323Z,24.94
2022-08-05T20:53:56.360Z,24.97
2022-08-05T20:56:27.671Z,24.71
2022-08-05T20:58:56.520Z,24.87
2022-08-05T21:01:38.150Z,24.93
2022-08-05T21:04:07.270Z,24.92
2022-08-05T21:06:36.953Z,25.03
2022-08-05T21:09:04.639Z,24.97
2022-08-05T21:12:09.513Z,24.95
2022-08-05T21:14:18.221Z,25.01
2022-08-05T21:16:45.382Z,24.97
2022-08-05T21:19:11.932Z,25.01
2022-08-05T21:21:44.566Z,25.00
2022-08-05T21:24:17.087Z,24.77
2022-08-05T21:26:57.974Z,25.02
2022-08-05T21:29:26.234Z,24.85
2022-08-05T21:31:52.866Z,24.66
2022-08-05T21:34:20.388Z,24.87
2022-08-05T21:36:49.040Z,24.93
2022-08-05T21:39:17.009Z,25.08
2022-08-05T21:42:02.007Z,24.92
2022-08-05T21:44:29.284Z,25.06
2022-08-05T21:46:58.215Z,24.94
2022-08-05T21:49:58.883Z,24.88
2022-08-05T21:52:16.353Z,25.09
2022-08-05T21:54:55.068Z,24.94
2022-08-05T21:57:31.201Z,24.99
2022-08-05T22:00:10.666Z,24.96
2022-08-05T22:02:41.676Z,24.98
2022-08-05T22:05:09.288Z,25.03
2022-08-05T22:07:39.956Z,25.03
2022-08-05T22:10:26.651Z,24.69
2022-08-05T22:12:53.991Z,24.62
2022-08-05T22:16:04.631Z,24.58
2022-08-05T22:18:06.777Z,24.53
2022-08-05T22:20:39.709Z,24.46
2022-08-05T22:23:24.677Z,24.41
2022-08-05T22:26:11.829Z,24.35
2022-08-05T22:28:41.369Z,24.30
2022-08-05T22:31:07.734Z,24.19
2022-08-05T22:33:57.424Z,24.11
2022-08-05T22:36:23.761Z,24.15
2022-08-05T22:38:50.635Z,24.07
2022-08-05T22:42:05.671Z,24.03
2022-08-05T22:44:04.271Z,24.03
2022-08-05T22:46:30.755Z,24.07
2022-08-05T22:48:58.859Z,24.04
2022-08-05T22:52:02.551Z,24.07
2022-08-05T22:54:11.558Z,24.04
2022-08-05T22:56:39.967Z,23.98
2022-08-05T22:59:46.150Z,23.99
2022-08-05T23:02:05.489Z,23.95
2022-08-05T23:04:33.790Z,23.98
2022-08-05T23:07:00.155Z,23.94
2022-08-05T23:09:27.861Z,23.93
2022-08-05T23:12:12.881Z,23.88
2022-08-05T23:14:39.244Z,23.81
2022-08-05T23:17:34.871Z,23.79
2022-08-05T23:20:04.797Z,23.74
2022-08-05T23:22:31.870Z,23.73
2022-08-05T23:24:59.814Z,23.70
2022-08-05T23:27:28.865Z,23.71
2022-08-05T23:29:57.923Z,23.62
2022-08-05T23:32:24.711Z,23.63
2022-08-05T23:34:53.495Z,23.62
2022-08-05T23:37:19.879Z,23.61
2022-08-05T23:39:53.521Z,23.60
2022-08-05T23:42:23.446Z,23.54
2022-08-05T23:44:55.834Z,23.55
2022-08-05T23:47:22.201Z,23.55
2022-08-05T23:49:51.981Z,23.53
2022-08-05T23:52:30.580Z,23.53
2022-08-05T23:55:02.461Z,23.53
2022-08-05T23:57:31.904Z,23.46
